METAR Data
IDs: Format: Raw Decoded Include TAF

Data at: 0258 UTC 18 Jun 2019

PADU 180256Z 32011KT 10SM FEW005 BKN041 BKN055 11/07 A2999 RMK AO2 RAE08 SLP161 P0000 60000 T01060072 51009
PADU 180156Z 33009KT 10SM -RA FEW004 BKN038 BKN060 11/07 A2998 RMK AO2 RAB22 SLP158 P0000 T01060072
PADU 180056Z 32013KT 10SM FEW004 BKN018 OVC028 11/07 A2998 RMK AO2 SLP157 T01060072
PADU 172356Z 28006KT 10SM BKN019 OVC030 11/07 A2997 RMK AO2 RAE41 SLP152 P0000 60000 T01110072 10122 20100 53010
PADU 172333Z 30007KT 10SM -RA BKN014 OVC030 11/08 A2996 RMK AO2 P0000
PADU 172256Z 28010KT 10SM -RA FEW002 BKN017 OVC022 11/08 A2996 RMK AO2 RAB42 SLP149 P0000 T01060078
PADU 172156Z 31011KT 10SM FEW002 BKN017 OVC022 11/08 A2994 RMK AO2 SLP145 T01060078
PADU 172056Z 31009KT 10SM FEW003 BKN016 OVC024 10/07 A2994 RMK AO2 SLP141 T01000072 53009
PADU 171956Z 32012G19KT 10SM FEW003 BKN022 BKN028 11/08 A2993 RMK AO2 SLP140 T01060078
PADU 171856Z 30008KT 10SM FEW009 BKN026 BKN035 11/07 A2991 RMK AO2 SLP133 T01110067
PADU 171830Z 29008KT 10SM BKN026 OVC034 10/07 A2991 RMK AO2
PADU 171756Z 31007KT 10SM FEW006 SCT065 BKN120 BKN200 10/06 A2991 RMK AO2 SLP132 ACSL NE-E SW-W T01000061 10100 20089 52010
PADU 171656Z 09003KT 10SM FEW006 SCT045 BKN060 09/07 A2990 RMK AO2 SLP128 T00940067
PADU 171556Z 09007KT 10SM FEW006 BKN080 BKN100 09/07 A2989 RMK AO2 SLP124 T00890072
PADU 171530Z 00000KT 10SM FEW006 BKN080 BKN100 09/07 A2988 RMK AO2
PADU 171456Z 05005KT 10SM FEW022 SCT080 BKN100 09/06 A2988 RMK AO2 SLP121 T00940061 53005
PADU 171356Z 34008KT 10SM FEW008 SCT019 BKN032 09/07 A2987 RMK AO2 SLP118 T00940067
PADU 171344Z 35008KT 10SM FEW011 SCT019 BKN032 09/07 A2987 RMK AO2
PADU 171305Z AUTO 01009KT 10SM BKN024 OVC032 09/06 A2987 RMK AO2
PADU 171256Z AUTO 35008KT 10SM FEW013 SCT024 OVC032 09/06 A2986 RMK AO2 SLP117 T00940061
PADU 171156Z AUTO 35006KT 10SM FEW034 09/06 A2986 RMK AO2 SLP115 60000 70001 T00890056 10094 20083 51011
PADU 171113Z AUTO 35009KT 10SM FEW010 SCT018 SCT110 09/07 A2985 RMK AO2
PADU 171056Z AUTO 36009KT 10SM SCT008 BKN018 09/07 A2985 RMK AO2 SLP112 T00890072
PADU 171049Z AUTO 36007KT 10SM SCT008 OVC018 09/07 A2985 RMK AO2
PADU 171015Z AUTO 34004KT 10SM BKN008 OVC016 09/08 A2985 RMK AO2
PADU 170956Z AUTO 32004KT 10SM BKN010 OVC017 09/07 A2984 RMK AO2 CIG 008V014 SLP109 T00890072
PADU 170929Z AUTO 33009KT 10SM OVC012 09/07 A2984 RMK AO2
PADU 170856Z AUTO 33012KT 10SM BKN009 OVC013 09/08 A2983 RMK AO2 CIG 007V011 SLP105 60000 T00890078 401110078 51020
PADU 170843Z AUTO 33012G15KT 10SM BKN009 OVC013 09/08 A2982 RMK AO2 CIG 007V010
PADU 170816Z AUTO 34005KT 10SM OVC014 09/07 A2982 RMK AO2
PADU 170756Z AUTO 35009KT 10SM OVC016 09/07 A2981 RMK AO2 RAE20 SLP098 P0000 T00890072
PADU 170729Z AUTO 35008KT 10SM OVC016 09/07 A2980 RMK AO2 RAE20 P0000
PADU 170656Z AUTO 33008KT 10SM -RA OVC011 09/07 A2979 RMK AO2 RAB51 CIG 010V013 SLP092 P0000 T00940072
PADU 170642Z AUTO 35006KT 10SM BKN011 OVC016 09/07 A2978 RMK AO2
PADU 170556Z AUTO 33010KT 10SM OVC018 09/07 A2977 RMK AO2 SLP084 60000 T00940072 10106 20094 53014
PADU 170531Z AUTO 35009KT 10SM FEW009 SCT014 OVC020 09/08 A2977 RMK AO2
PADU 170506Z AUTO 34008KT 10SM BKN011 OVC018 09/08 A2976 RMK AO2
PADU 170456Z AUTO 35010KT 10SM SCT009 OVC018 09/08 A2975 RMK AO2 SLP079 T00940078
PADU 170356Z 36009KT 10SM FEW007 SCT014 BKN041 09/08 A2974 RMK AO2 SLP074 T00940078
PADU 170304Z 35011G15KT 10SM FEW007 SCT014 BKN041 09/08 A2973 RMK AO2
PADU 170256Z 35009G17KT 10SM FEW010 SCT014 BKN041 09/08 A2973 RMK AO2 SLP070 60000 T00940078 52012
PADU 170156Z 36009KT 10SM FEW010 SCT014 BKN041 10/08 A2972 RMK AO2 RAE33 SLP067 P0000 T01000078
PADU 170056Z VRB06KT 10SM -RA FEW010 SCT014 BKN041 10/08 A2970 RMK AO2 RAB10 SLP062 P0000 T01000078
PADU 162356Z 35011G18KT 10SM FEW010 SCT014 BKN041 10/08 A2969 RMK AO2 SLP058 60001 T01000078 10111 20083 51012
PADU 162305Z 36013G20KT 10SM FEW010 SCT014 BKN041 11/08 A2968 RMK AO2
PADU 162256Z 34013G19KT 10SM FEW008 BKN022 BKN048 11/08 A2968 RMK AO2 SLP055 P0001 T01110083
PADU 162156Z VRB05G16KT 10SM FEW008 BKN022 BKN048 10/08 A2967 RMK AO2 SLP052 T01000078
PADU 162056Z 34007KT 10SM FEW008 BKN022 BKN048 11/07 A2966 RMK AO2 SLP046 60000 T01060072 53006
PADU 161956Z 15006KT 10SM FEW005 SCT010 BKN020 09/08 A2964 RMK AO2 SLP042 T00890078
PADU 161951Z 14006KT 10SM FEW005 SCT010 BKN020 09/08 A2965 RMK AO2
PADU 161856Z VRB04KT 10SM SCT005 BKN010 BKN020 09/08 A2964 RMK AO2 RAB39E56 SLP040 P0000 T00890078
PADU 161756Z 00000KT 10SM FEW005 BKN020 OVC070 08/07 A2963 RMK AO2 RAB01E07 SLP036 P0000 60000 T00830072 10089 20078 52013
PADU 161656Z 00000KT 8SM FEW003 SCT005 BKN020 08/07 A2961 RMK AO2 SLP031 T00830072
PADU 161619Z 32003KT 10SM FEW003 SCT005 OVC035 08/07 A2961 RMK AO2
PADU 161556Z 00000KT 8SM FEW002 BKN005 OVC018 08/07 A2960 RMK AO2 RAE1458 SLP028 P0000 T00830072